createdAt,value
2022-11-19T00:04:08.305Z,99664.09
2022-11-19T00:09:14.705Z,99658.03
2022-11-19T00:14:17.178Z,99675.41
2022-11-19T00:19:19.718Z,99663.59
2022-11-19T00:24:23.056Z,99653.44
2022-11-19T00:29:25.343Z,99654.25
2022-11-19T00:34:27.680Z,99695.91
2022-11-19T00:39:30.564Z,99704.16
2022-11-19T00:44:37.190Z,99676.63
2022-11-19T00:49:39.962Z,99658.75
2022-11-19T00:54:42.240Z,99724.03
2022-11-19T00:59:44.492Z,99671.41
2022-11-19T01:04:46.681Z,99723.94
2022-11-19T01:09:48.906Z,99697.03
2022-11-19T01:14:51.309Z,99652.69
2022-11-19T01:19:53.552Z,99688.84
2022-11-19T01:24:55.752Z,99709.16
2022-11-19T01:29:57.981Z,99712.09
2022-11-19T01:35:00.195Z,99725.88
2022-11-19T01:40:02.406Z,99731.84
2022-11-19T01:45:07.145Z,99744.91
2022-11-19T01:50:09.506Z,99717.41
2022-11-19T01:55:12.489Z,99726.94
2022-11-19T02:00:15.177Z,99735.75
2022-11-19T02:05:18.033Z,99754.44
2022-11-19T02:10:24.434Z,99754.78
2022-11-19T02:15:29.359Z,99765.47
2022-11-19T02:20:50.291Z,99770.63
2022-11-19T02:26:20.170Z,99763.00
2022-11-19T02:31:31.669Z,99732.44
2022-11-19T02:36:59.753Z,99764.16
2022-11-19T02:42:30.565Z,99685.66
2022-11-19T02:47:35.837Z,99767.81
2022-11-19T02:52:40.217Z,99716.47
2022-11-19T02:57:51.904Z,99781.44
2022-11-19T03:03:18.623Z,99736.03
2022-11-19T03:08:21.437Z,99787.38
2022-11-19T03:13:55.640Z,99775.47
2022-11-19T03:19:08.671Z,99789.28
2022-11-19T03:24:23.911Z,99793.66
2022-11-19T03:29:28.465Z,99769.09
2022-11-19T03:34:32.159Z,99801.00
2022-11-19T03:39:37.546Z,99810.06
2022-11-19T03:44:45.368Z,99843.03
2022-11-19T03:49:52.731Z,99858.03
2022-11-19T03:54:55.281Z,99842.66
2022-11-19T03:59:57.478Z,99811.69
2022-11-19T04:04:59.716Z,99833.53
2022-11-19T04:10:02.139Z,99852.59
2022-11-19T04:15:04.737Z,99860.59
2022-11-19T04:20:08.409Z,99869.34
2022-11-19T04:25:10.751Z,99857.88
2022-11-19T04:30:13.848Z,99880.72
2022-11-19T04:35:19.268Z,99870.44
2022-11-19T04:40:21.630Z,99924.69
2022-11-19T04:45:23.896Z,99882.66
2022-11-19T04:50:26.224Z,99895.09
2022-11-19T04:55:28.420Z,99859.00
2022-11-19T05:00:30.907Z,99898.06
2022-11-19T05:05:33.174Z,99937.84
2022-11-19T05:10:35.524Z,99916.50
2022-11-19T05:15:37.977Z,99985.13
2022-11-19T05:20:40.389Z,99956.38
2022-11-19T05:25:42.631Z,99990.03
2022-11-19T05:30:44.968Z,99956.81
2022-11-19T05:35:47.294Z,100014.44
2022-11-19T05:40:49.520Z,99995.06
2022-11-19T05:45:53.418Z,100008.47
2022-11-19T05:50:55.888Z,100014.13
2022-11-19T05:55:58.094Z,100054.03
2022-11-19T06:01:00.651Z,100042.28
2022-11-19T06:06:02.998Z,100050.75
2022-11-19T06:11:05.384Z,100053.41
2022-11-19T06:16:07.769Z,100016.63
2022-11-19T06:21:12.251Z,100068.22
2022-11-19T06:26:23.754Z,100096.25
2022-11-19T06:31:26.306Z,100105.81
2022-11-19T06:36:33.732Z,100089.91
2022-11-19T06:41:39.846Z,100090.69
2022-11-19T06:46:42.075Z,100106.63
2022-11-19T06:51:44.348Z,100082.59
2022-11-19T06:56:46.585Z,100120.09
2022-11-19T07:01:48.836Z,100113.47
2022-11-19T07:06:51.200Z,100124.59
2022-11-19T07:11:53.691Z,100103.31
2022-11-19T07:16:56.700Z,100132.59
2022-11-19T07:21:59.085Z,100116.31
2022-11-19T07:27:01.574Z,100137.22
2022-11-19T07:32:03.810Z,100161.47
2022-11-19T07:37:06.165Z,100095.56
2022-11-19T07:42:27.523Z,100159.75
2022-11-19T07:47:30.158Z,100148.34
2022-11-19T07:52:32.701Z,100152.47
2022-11-19T07:57:35.356Z,100164.63
2022-11-19T08:02:38.894Z,100168.00
2022-11-19T08:07:42.292Z,100186.25
2022-11-19T08:13:03.411Z,100137.63
2022-11-19T08:18:16.536Z,100162.13
2022-11-19T08:23:18.880Z,100154.34
2022-11-19T08:28:21.296Z,100164.22
2022-11-19T08:33:23.603Z,100167.00
2022-11-19T08:38:26.705Z,100138.25
2022-11-19T08:43:28.987Z,100177.09
2022-11-19T08:48:31.330Z,100132.72
2022-11-19T08:53:34.612Z,100211.44
2022-11-19T08:58:37.041Z,100185.13
2022-11-19T09:03:39.974Z,100190.19
2022-11-19T09:08:42.488Z,100211.97
2022-11-19T09:13:45.091Z,100222.94
2022-11-19T09:18:47.367Z,100207.75
2022-11-19T09:23:49.957Z,100173.78
2022-11-19T09:28:52.322Z,100195.09
2022-11-19T09:33:55.047Z,100203.47
2022-11-19T09:38:58.695Z,100200.38
2022-11-19T09:44:23.125Z,100193.88
2022-11-19T09:49:38.308Z,100181.88
2022-11-19T09:54:50.707Z,100191.97
2022-11-19T09:59:57.217Z,100168.19
2022-11-19T10:04:59.887Z,100183.72
2022-11-19T10:10:23.068Z,100201.97
2022-11-19T10:15:37.953Z,100159.31
2022-11-19T10:20:53.581Z,100154.31
2022-11-19T10:26:04.466Z,100132.22
2022-11-19T10:31:36.579Z,100141.25
2022-11-19T10:36:47.106Z,100171.25
2022-11-19T10:42:01.169Z,100173.50
2022-11-19T10:47:37.512Z,100171.88
2022-11-19T10:52:53.802Z,100146.22
2022-11-19T10:58:24.796Z,100161.13
2022-11-19T11:03:44.489Z,100150.94
2022-11-19T11:08:55.170Z,100137.09
2022-11-19T11:14:18.807Z,100122.69
2022-11-19T11:19:22.498Z,100120.31
2022-11-19T11:24:35.673Z,100132.47
2022-11-19T11:29:37.933Z,100147.25
2022-11-19T11:34:44.137Z,100147.00
2022-11-19T11:39:53.113Z,100095.09
2022-11-19T11:45:01.688Z,100099.41
2022-11-19T11:50:15.648Z,100149.25
2022-11-19T11:55:23.899Z,100134.81
2022-11-19T12:00:46.507Z,100136.19
2022-11-19T12:06:04.439Z,100133.00
2022-11-19T12:11:20.346Z,100110.19
2022-11-19T12:16:22.588Z,100125.06
2022-11-19T12:21:36.682Z,100122.97
2022-11-19T12:27:01.507Z,100115.88
2022-11-19T12:32:17.373Z,100100.31
2022-11-19T12:37:25.364Z,100140.59
2022-11-19T12:42:33.351Z,100137.59
2022-11-19T12:48:03.269Z,100113.28
2022-11-19T12:53:28.248Z,100125.72
2022-11-19T12:58:50.744Z,100143.16
2022-11-19T13:03:56.017Z,100132.53
2022-11-19T13:09:07.836Z,100138.78
2022-11-19T13:14:36.068Z,100095.91
2022-11-19T13:19:40.100Z,100122.31
2022-11-19T13:24:47.442Z,100097.47
2022-11-19T13:30:00.156Z,100124.84
2022-11-19T13:35:19.133Z,100144.22
2022-11-19T13:40:37.462Z,100127.03
2022-11-19T13:45:43.768Z,100109.78
2022-11-19T13:50:49.369Z,100111.69
2022-11-19T13:55:58.056Z,100117.47
2022-11-19T14:01:24.606Z,100122.91
2022-11-19T14:06:32.279Z,100149.63
2022-11-19T14:11:34.732Z,100156.69
2022-11-19T14:17:12.270Z,100147.94
2022-11-19T14:22:54.050Z,100166.78
2022-11-19T14:27:56.316Z,100148.00
2022-11-19T14:32:58.824Z,100121.84
2022-11-19T14:38:23.655Z,100173.06
2022-11-19T14:43:46.359Z,100171.19
2022-11-19T14:48:52.594Z,100167.75
2022-11-19T14:54:01.793Z,100176.19
2022-11-19T14:59:21.175Z,100156.03
2022-11-19T15:04:29.751Z,100180.94
2022-11-19T15:10:09.184Z,100177.59
2022-11-19T15:15:20.612Z,100183.28
2022-11-19T15:20:34.040Z,100185.53
2022-11-19T15:26:12.316Z,100171.00
2022-11-19T15:31:43.478Z,100165.59
2022-11-19T15:36:52.562Z,100211.06
2022-11-19T15:42:02.832Z,100164.69
2022-11-19T15:47:13.162Z,100156.34
2022-11-19T15:52:28.959Z,100201.72
2022-11-19T15:57:31.725Z,100209.91
2022-11-19T16:02:41.630Z,100226.69
2022-11-19T16:07:47.372Z,100213.47
2022-11-19T16:13:16.602Z,100264.16
2022-11-19T16:18:20.718Z,100275.81
2022-11-19T16:23:25.519Z,100258.78
2022-11-19T16:28:31.029Z,100250.72
2022-11-19T16:33:35.010Z,100275.19
2022-11-19T16:38:38.884Z,100285.72
2022-11-19T16:43:48.938Z,100275.88
2022-11-19T16:48:56.163Z,100317.97
2022-11-19T16:53:58.804Z,100320.53
2022-11-19T16:59:04.322Z,100266.59
2022-11-19T17:04:08.589Z,100274.41
2022-11-19T17:09:30.854Z,100316.47
2022-11-19T17:14:36.102Z,100324.25
2022-11-19T17:19:38.382Z,100330.88
2022-11-19T17:24:45.352Z,100337.00
2022-11-19T17:29:47.652Z,100283.03
2022-11-19T17:34:55.550Z,100325.69
2022-11-19T17:39:57.813Z,100317.72
2022-11-19T17:45:04.757Z,100293.91
2022-11-19T17:50:10.015Z,100320.09
2022-11-19T17:55:18.507Z,100289.16
2022-11-19T18:00:20.971Z,100337.94
2022-11-19T18:05:34.706Z,100331.56
2022-11-19T18:10:37.273Z,100321.88
2022-11-19T18:15:39.742Z,100363.00
2022-11-19T18:20:42.557Z,100367.38
2022-11-19T18:25:45.294Z,100386.91
2022-11-19T18:30:47.897Z,100387.16
2022-11-19T18:35:50.197Z,100353.91
2022-11-19T18:40:52.655Z,100367.13
2022-11-19T18:45:55.038Z,100309.44
2022-11-19T18:50:57.538Z,100356.41
2022-11-19T18:55:59.890Z,100344.13
2022-11-19T19:01:07.605Z,100372.94
2022-11-19T19:06:10.235Z,100374.81
2022-11-19T19:11:31.509Z,100354.47
2022-11-19T19:16:35.176Z,100388.63
2022-11-19T19:21:37.469Z,100317.09
2022-11-19T19:26:39.819Z,100353.69
2022-11-19T19:31:42.205Z,100384.13
2022-11-19T19:36:48.974Z,100353.00
2022-11-19T19:41:55.420Z,100353.28
2022-11-19T19:46:57.864Z,100344.53
2022-11-19T19:52:00.113Z,100365.06
2022-11-19T19:57:02.532Z,100375.88
2022-11-19T20:02:04.944Z,100339.22
2022-11-19T20:07:07.570Z,100345.72
2022-11-19T20:12:10.150Z,100332.53
2022-11-19T20:17:12.504Z,100387.34
2022-11-19T20:22:14.741Z,100332.41
2022-11-19T20:27:17.039Z,100358.84
2022-11-19T20:32:19.320Z,100360.00
2022-11-19T20:37:21.708Z,100337.50
2022-11-19T20:42:42.242Z,100347.59
2022-11-19T20:47:44.519Z,100344.19
2022-11-19T20:52:46.923Z,100346.91
2022-11-19T20:57:49.521Z,100340.09
2022-11-19T21:02:51.785Z,100354.81
2022-11-19T21:07:54.164Z,100286.19
2022-11-19T21:13:02.439Z,100324.75
2022-11-19T21:18:05.008Z,100304.84
2022-11-19T21:23:07.293Z,100343.31
2022-11-19T21:28:10.005Z,100365.69
2022-11-19T21:33:12.286Z,100375.00
2022-11-19T21:38:14.830Z,100364.03
2022-11-19T21:43:17.283Z,100344.94
2022-11-19T21:48:20.058Z,100333.59
2022-11-19T21:53:22.406Z,100321.56
2022-11-19T21:58:24.653Z,100359.56
2022-11-19T22:03:32.826Z,100357.66
2022-11-19T22:08:38.801Z,100366.66
2022-11-19T22:13:41.162Z,100333.38
2022-11-19T22:18:43.719Z,100291.41
2022-11-19T22:23:46.299Z,100340.44
2022-11-19T22:28:48.751Z,100339.97
2022-11-19T22:33:52.380Z,100343.88
2022-11-19T22:38:54.786Z,100318.03
2022-11-19T22:43:58.900Z,100344.94
2022-11-19T22:49:01.428Z,100310.28
2022-11-19T22:54:03.986Z,100287.38
2022-11-19T22:59:06.197Z,100306.16
2022-11-19T23:04:08.695Z,100305.78
2022-11-19T23:09:11.154Z,100296.56
2022-11-19T23:14:15.384Z,100325.00
2022-11-19T23:19:20.023Z,100262.41
2022-11-19T23:24:22.598Z,100281.97
2022-11-19T23:29:24.922Z,100261.56
2022-11-19T23:34:27.338Z,100234.13
2022-11-19T23:39:29.565Z,100251.53
2022-11-19T23:44:31.785Z,100304.13
2022-11-19T23:49:34.003Z,100240.34
2022-11-19T23:54:36.275Z,100242.00
2022-11-19T23:59:38.566Z,100278.97
